createdAt,value
2019-05-11T11:30:33.588Z,1316.25
2019-05-11T11:31:33.569Z,1383.75
2019-05-11T11:32:33.561Z,1513.12
2019-05-11T11:33:33.550Z,1400.62
2019-05-11T11:34:33.543Z,1383.75
2019-05-11T11:35:33.536Z,1220.62
2019-05-11T11:36:33.521Z,1141.88
2019-05-11T11:37:33.526Z,860.62
2019-05-11T11:38:33.491Z,607.50
2019-05-11T11:39:33.480Z,540.00
2019-05-11T11:40:33.478Z,416.25
2019-05-11T11:41:33.459Z,489.38
2019-05-11T11:42:33.529Z,523.12
2019-05-11T11:43:33.438Z,641.25
2019-05-11T11:44:33.427Z,568.12
2019-05-11T11:45:33.425Z,511.88
2019-05-11T11:46:47.518Z,506.25
2019-05-11T11:47:34.405Z,461.25
2019-05-11T11:48:33.381Z,568.12
2019-05-11T11:49:33.371Z,804.38
2019-05-11T11:50:33.371Z,781.88
2019-05-11T11:51:33.349Z,455.62
2019-05-11T11:52:33.337Z,573.75
2019-05-11T11:53:33.326Z,489.38
2019-05-11T11:54:33.316Z,461.25
2019-05-11T11:55:33.319Z,675.00
2019-05-11T11:56:33.295Z,455.62
2019-05-11T11:57:33.281Z,331.88
2019-05-11T11:58:33.270Z,421.88
2019-05-11T11:59:33.261Z,691.88
2019-05-11T12:00:33.250Z,832.50
2019-05-11T12:01:33.247Z,759.38
2019-05-11T12:02:33.226Z,1006.88
2019-05-11T12:03:33.217Z,568.12
2019-05-11T12:04:33.208Z,905.62
2019-05-11T12:05:33.192Z,495.00
2019-05-11T12:06:33.191Z,511.88
2019-05-11T12:07:33.173Z,613.12
2019-05-11T12:08:33.163Z,438.75
2019-05-11T12:09:33.149Z,461.25
2019-05-11T12:10:33.138Z,416.25
2019-05-11T12:11:33.136Z,461.25
2019-05-11T12:12:33.114Z,360.00
2019-05-11T12:13:33.103Z,326.25
2019-05-11T12:14:33.094Z,270.00
2019-05-11T12:15:33.096Z,286.88
2019-05-11T12:16:33.080Z,326.25
2019-05-11T12:17:33.060Z,399.38
2019-05-11T12:18:33.048Z,416.25
2019-05-11T12:19:33.041Z,472.50
2019-05-11T12:20:33.031Z,573.75
2019-05-11T12:21:33.023Z,725.62
2019-05-11T12:22:33.015Z,787.50
2019-05-11T12:23:33.002Z,725.62
2019-05-11T12:24:33.002Z,562.50
2019-05-11T12:25:32.970Z,731.25
2019-05-11T12:26:32.968Z,736.88
2019-05-11T12:27:32.949Z,466.88
2019-05-11T12:28:32.936Z,866.25
2019-05-11T12:29:32.927Z,843.75
2019-05-11T12:30:32.915Z,748.12
2019-05-11T12:31:32.913Z,461.25
2019-05-11T12:32:32.892Z,388.12
2019-05-11T12:33:32.882Z,360.00
2019-05-11T12:34:32.874Z,703.12
2019-05-11T12:35:32.864Z,1434.38
2019-05-11T12:36:32.860Z,1372.50
2019-05-11T12:37:32.837Z,1333.12
2019-05-11T12:38:32.826Z,551.25
2019-05-11T12:39:32.819Z,455.62
2019-05-11T12:40:32.810Z,354.38
2019-05-11T12:41:32.805Z,708.75
2019-05-11T12:42:32.783Z,573.75
2019-05-11T12:43:32.800Z,348.75
2019-05-11T12:44:32.762Z,450.00
2019-05-11T12:45:32.754Z,461.25
2019-05-11T12:46:32.748Z,298.12
2019-05-11T12:47:32.732Z,315.00
2019-05-11T12:48:32.719Z,388.12
2019-05-11T12:49:32.708Z,405.00
2019-05-11T12:50:32.695Z,393.75
2019-05-11T12:51:32.695Z,388.12
2019-05-11T12:52:32.676Z,348.75
2019-05-11T12:53:32.664Z,360.00
2019-05-11T12:54:34.100Z,236.25
2019-05-11T12:55:32.643Z,168.75
2019-05-11T12:56:32.639Z,196.88
2019-05-11T12:57:32.618Z,264.38
2019-05-11T12:58:32.607Z,371.25
2019-05-11T12:59:32.596Z,466.88
2019-05-11T13:00:32.587Z,523.12
2019-05-11T13:01:32.587Z,528.75
2019-05-11T13:02:32.573Z,421.88
2019-05-11T13:03:32.555Z,315.00
2019-05-11T13:04:32.543Z,236.25
2019-05-11T13:05:32.530Z,185.62
2019-05-11T13:06:32.522Z,157.50
2019-05-11T13:07:32.516Z,146.25
2019-05-11T13:08:32.498Z,157.50
2019-05-11T13:09:32.485Z,185.62
2019-05-11T13:10:32.477Z,241.88
2019-05-11T13:11:32.463Z,315.00
2019-05-11T13:12:32.465Z,348.75
2019-05-11T13:13:32.442Z,360.00
2019-05-11T13:14:32.431Z,382.50
2019-05-11T13:15:32.419Z,410.62
2019-05-11T13:16:32.411Z,444.38
2019-05-11T13:17:36.946Z,472.50
2019-05-11T13:18:33.387Z,461.25
2019-05-11T13:19:32.375Z,483.75
2019-05-11T13:20:32.365Z,472.50
2019-05-11T13:21:32.354Z,478.12
2019-05-11T13:22:32.352Z,433.12
2019-05-11T13:23:32.331Z,455.62
2019-05-11T13:24:32.322Z,416.25
2019-05-11T13:25:32.310Z,331.88
2019-05-11T13:26:32.302Z,315.00
2019-05-11T13:27:32.296Z,360.00
2019-05-11T13:28:32.276Z,365.62
2019-05-11T13:29:32.266Z,337.50
2019-05-11T13:30:32.254Z,309.38
2019-05-11T13:31:32.244Z,320.62
2019-05-11T13:32:32.244Z,303.75
2019-05-11T13:33:32.221Z,275.62
2019-05-11T13:34:32.212Z,253.12
2019-05-11T13:35:32.199Z,241.88
2019-05-11T13:36:32.194Z,219.38
2019-05-11T13:37:32.191Z,213.75
2019-05-11T13:38:32.166Z,230.62
2019-05-11T13:39:32.162Z,213.75
2019-05-11T13:40:32.146Z,230.62
2019-05-11T13:41:32.134Z,281.25
2019-05-11T13:42:32.135Z,371.25
2019-05-11T13:43:32.114Z,478.12
2019-05-11T13:44:32.099Z,495.00
2019-05-11T13:45:32.092Z,517.50
2019-05-11T13:46:32.079Z,461.25
2019-05-11T13:47:32.078Z,579.38
2019-05-11T13:48:32.055Z,562.50
2019-05-11T13:49:32.696Z,416.25
2019-05-11T13:50:32.035Z,421.88
2019-05-11T13:51:32.022Z,360.00
2019-05-11T13:52:32.023Z,466.88
2019-05-11T13:53:32.003Z,388.12
2019-05-11T13:54:31.990Z,376.88
2019-05-11T13:55:31.979Z,376.88
2019-05-11T13:56:32.423Z,376.88
2019-05-11T13:57:31.963Z,360.00
2019-05-11T13:58:31.945Z,326.25
2019-05-11T13:59:31.933Z,320.62
2019-05-11T14:00:31.925Z,309.38
2019-05-11T14:01:31.912Z,343.12
2019-05-11T14:02:31.912Z,337.50
2019-05-11T14:03:31.888Z,315.00
2019-05-11T14:04:31.880Z,298.12
2019-05-11T14:05:31.868Z,292.50
2019-05-11T14:06:31.866Z,298.12
2019-05-11T14:07:31.883Z,315.00
2019-05-11T14:08:31.835Z,337.50
2019-05-11T14:09:31.826Z,382.50
2019-05-11T14:10:31.811Z,331.88
2019-05-11T14:11:31.801Z,320.62
2019-05-11T14:12:31.805Z,331.88
2019-05-11T14:13:31.779Z,348.75
2019-05-11T14:14:31.770Z,326.25
2019-05-11T14:15:31.757Z,354.38
2019-05-11T14:16:31.748Z,331.88
2019-05-11T14:17:32.039Z,303.75
2019-05-11T14:18:31.723Z,298.12
2019-05-11T14:19:31.721Z,298.12
2019-05-11T14:20:31.701Z,315.00
2019-05-11T14:21:31.692Z,455.62
2019-05-11T14:22:31.690Z,1220.62
2019-05-11T14:23:31.673Z,905.62
2019-05-11T14:24:31.663Z,658.12
2019-05-11T14:25:31.648Z,528.75
2019-05-11T14:26:31.638Z,506.25
2019-05-11T14:27:31.638Z,483.75
2019-05-11T14:28:31.621Z,540.00
2019-05-11T14:29:31.609Z,793.12
2019-05-11T14:30:31.593Z,1023.75
2019-05-11T14:31:31.581Z,1248.75
2019-05-11T14:32:31.583Z,1338.75
2019-05-11T14:33:31.560Z,1338.75
2019-05-11T14:34:31.550Z,1091.25
2019-05-11T14:35:31.538Z,1378.12
2019-05-11T14:36:31.525Z,1333.12
2019-05-11T14:37:31.531Z,1260.00
2019-05-11T14:38:31.510Z,1085.62
2019-05-11T14:39:31.496Z,1063.12
2019-05-11T14:40:31.486Z,1338.75
2019-05-11T14:41:31.473Z,1321.88
2019-05-11T14:42:31.459Z,781.88
2019-05-11T14:43:31.460Z,590.62
2019-05-11T14:44:31.441Z,337.50
2019-05-11T14:45:31.434Z,326.25
2019-05-11T14:46:31.420Z,348.75
2019-05-11T14:47:31.406Z,607.50
2019-05-11T14:48:31.406Z,635.62
2019-05-11T14:49:31.384Z,416.25
2019-05-11T14:50:31.375Z,348.75
2019-05-11T14:51:31.366Z,309.38
2019-05-11T14:52:31.353Z,315.00
2019-05-11T14:53:31.351Z,326.25
2019-05-11T14:54:31.331Z,365.62
2019-05-11T14:55:31.319Z,534.38
2019-05-11T14:56:31.310Z,877.50
2019-05-11T14:57:31.298Z,961.88
2019-05-11T14:58:31.296Z,933.75
2019-05-11T14:59:31.275Z,911.25
2019-05-11T15:00:31.263Z,675.00
2019-05-11T15:01:31.253Z,787.50
2019-05-11T15:02:31.243Z,1158.75
2019-05-11T15:03:31.245Z,1063.12
2019-05-11T15:04:31.220Z,1018.12
2019-05-11T15:05:31.217Z,495.00
2019-05-11T15:06:31.202Z,815.62
2019-05-11T15:07:31.192Z,978.75
2019-05-11T15:08:31.186Z,1125.00
2019-05-11T15:09:31.164Z,1164.38
2019-05-11T15:10:31.152Z,180.00
2019-05-11T15:11:31.141Z,1091.25
2019-05-11T15:12:31.137Z,860.62
2019-05-11T15:13:31.127Z,1018.12
2019-05-11T15:14:31.107Z,753.75
2019-05-11T15:15:31.107Z,185.62
2019-05-11T15:16:31.094Z,135.00
2019-05-11T15:17:31.074Z,123.75
2019-05-11T15:18:38.651Z,118.12
2019-05-11T15:19:32.069Z,123.75
2019-05-11T15:20:31.041Z,129.38
2019-05-11T15:21:31.035Z,123.75
2019-05-11T15:22:31.023Z,123.75
2019-05-11T15:23:31.017Z,118.12
2019-05-11T15:24:31.004Z,118.12
2019-05-11T15:25:30.987Z,129.38
2019-05-11T15:26:30.978Z,135.00
2019-05-11T15:27:30.978Z,140.62
2019-05-11T15:28:30.961Z,157.50
2019-05-11T15:29:30.945Z,185.62
2019-05-11T15:30:30.931Z,157.50
2019-05-11T15:31:30.930Z,146.25
2019-05-11T15:32:30.916Z,157.50
2019-05-11T15:33:30.910Z,399.38
2019-05-11T15:34:30.895Z,219.38
2019-05-11T15:35:30.876Z,331.88
2019-05-11T15:36:30.865Z,376.88
2019-05-11T15:37:30.855Z,225.00
2019-05-11T15:38:30.851Z,208.12
2019-05-11T15:39:30.836Z,196.88
2019-05-11T15:40:30.824Z,180.00
2019-05-11T15:41:30.819Z,163.12
2019-05-11T15:42:30.800Z,123.75
2019-05-11T15:43:30.801Z,101.25
2019-05-11T15:44:30.779Z,90.00
2019-05-11T15:45:30.766Z,90.00
2019-05-11T15:46:30.759Z,101.25
2019-05-11T15:47:30.742Z,123.75
2019-05-11T15:48:30.745Z,174.38
2019-05-11T15:49:30.721Z,174.38
2019-05-11T15:50:30.708Z,146.25
2019-05-11T15:51:30.697Z,140.62
2019-05-11T15:52:30.691Z,140.62
2019-05-11T15:53:30.694Z,129.38
2019-05-11T15:54:30.667Z,140.62
2019-05-11T15:55:30.654Z,151.88
2019-05-11T15:56:30.645Z,151.88
2019-05-11T15:57:30.634Z,146.25
2019-05-11T15:58:30.623Z,135.00
2019-05-11T15:59:30.790Z,129.38
2019-05-11T16:00:30.603Z,118.12
2019-05-11T16:01:30.589Z,112.50
2019-05-11T16:02:30.579Z,106.88
2019-05-11T16:03:30.568Z,106.88
2019-05-11T16:04:30.564Z,101.25
2019-05-11T16:05:30.548Z,90.00
2019-05-11T16:06:30.536Z,73.12
2019-05-11T16:07:30.527Z,73.12
2019-05-11T16:08:30.511Z,84.38
2019-05-11T16:09:30.512Z,90.00
2019-05-11T16:10:30.488Z,90.00
2019-05-11T16:11:30.476Z,90.00
2019-05-11T16:12:30.469Z,95.62
2019-05-11T16:13:30.455Z,95.62
2019-05-11T16:14:30.453Z,95.62
2019-05-11T16:15:30.432Z,95.62
2019-05-11T16:16:30.423Z,95.62
2019-05-11T16:17:30.409Z,84.38
2019-05-11T16:18:30.398Z,78.75
2019-05-11T16:19:30.397Z,78.75
2019-05-11T16:20:30.376Z,78.75
2019-05-11T16:21:30.371Z,84.38
2019-05-11T16:22:30.354Z,90.00
2019-05-11T16:23:30.342Z,101.25
2019-05-11T16:24:30.340Z,118.12
2019-05-11T16:25:30.320Z,118.12
2019-05-11T16:26:30.309Z,112.50
2019-05-11T16:27:30.306Z,106.88
2019-05-11T16:28:30.915Z,106.88
2019-05-11T16:29:30.284Z,106.88
2019-05-11T16:30:30.269Z,106.88
2019-05-11T16:31:30.256Z,118.12
2019-05-11T16:32:30.242Z,135.00
2019-05-11T16:33:30.231Z,146.25
2019-05-11T16:34:30.230Z,151.88
2019-05-11T16:35:30.210Z,151.88
2019-05-11T16:36:30.197Z,146.25
2019-05-11T16:37:30.185Z,151.88
2019-05-11T16:38:30.177Z,163.12
2019-05-11T16:39:30.171Z,157.50
2019-05-11T16:40:30.153Z,140.62
2019-05-11T16:41:30.141Z,135.00
2019-05-11T16:42:30.661Z,135.00
2019-05-11T16:43:30.130Z,135.00
2019-05-11T16:44:30.116Z,135.00
2019-05-11T16:45:30.107Z,129.38
2019-05-11T16:46:30.090Z,123.75
2019-05-11T16:47:30.076Z,129.38
2019-05-11T16:48:30.065Z,123.75
2019-05-11T16:49:32.467Z,123.75
2019-05-11T16:50:30.056Z,118.12
2019-05-11T16:51:30.031Z,118.12
2019-05-11T16:52:30.018Z,112.50
2019-05-11T16:53:30.010Z,106.88
2019-05-11T16:54:30.001Z,101.25
2019-05-11T16:55:29.993Z,101.25
2019-05-11T16:56:29.973Z,106.88
2019-05-11T16:57:29.961Z,101.25
2019-05-11T16:58:29.952Z,101.25
2019-05-11T16:59:29.941Z,106.88
2019-05-11T17:00:29.937Z,106.88
2019-05-11T17:01:29.919Z,106.88
2019-05-11T17:02:30.424Z,106.88
2019-05-11T17:03:29.894Z,106.88
2019-05-11T17:04:31.313Z,106.88
2019-05-11T17:05:33.538Z,106.88
2019-05-11T17:06:31.857Z,101.25
2019-05-11T17:07:30.096Z,95.62
2019-05-11T17:08:29.838Z,90.00
2019-05-11T17:09:29.831Z,84.38
2019-05-11T17:10:29.824Z,73.12
2019-05-11T17:11:29.805Z,67.50
2019-05-11T17:12:29.794Z,67.50
2019-05-11T17:13:29.784Z,61.88
2019-05-11T17:14:29.770Z,61.88
2019-05-11T17:15:29.774Z,61.88
2019-05-11T17:16:29.751Z,61.88
2019-05-11T17:17:29.755Z,56.25
2019-05-11T17:18:29.729Z,50.62
2019-05-11T17:19:42.880Z,39.38
2019-05-11T17:20:30.724Z,33.75
2019-05-11T17:21:30.047Z,28.12
2019-05-11T17:22:29.681Z,22.50
2019-05-11T17:23:31.093Z,22.50
2019-05-11T17:24:29.659Z,28.12
2019-05-11T17:25:29.659Z,28.12
2019-05-11T17:26:29.639Z,33.75
2019-05-11T17:27:29.626Z,33.75
2019-05-11T17:28:29.616Z,39.38
2019-05-11T17:29:29.605Z,45.00
2019-05-11T17:30:29.601Z,45.00
2019-05-11T17:31:29.581Z,50.62
2019-05-11T17:32:29.572Z,50.62
2019-05-11T17:33:29.561Z,50.62
2019-05-11T17:34:29.547Z,56.25
2019-05-11T17:35:29.546Z,56.25
2019-05-11T17:36:29.525Z,56.25
2019-05-11T17:37:29.513Z,56.25
2019-05-11T17:38:29.506Z,56.25
2019-05-11T17:39:29.493Z,67.50
2019-05-11T17:40:29.491Z,67.50
2019-05-11T17:41:29.469Z,73.12
2019-05-11T17:42:29.457Z,67.50
2019-05-11T17:43:29.448Z,67.50
2019-05-11T17:44:29.438Z,73.12
2019-05-11T17:45:29.432Z,67.50
2019-05-11T17:46:29.414Z,61.88
2019-05-11T17:47:29.401Z,61.88
2019-05-11T17:48:29.393Z,61.88
2019-05-11T17:49:29.382Z,67.50
2019-05-11T17:50:29.381Z,67.50
2019-05-11T17:51:29.361Z,73.12
2019-05-11T17:52:29.345Z,78.75
2019-05-11T17:53:29.336Z,78.75
2019-05-11T17:54:29.324Z,73.12
2019-05-11T17:55:29.314Z,73.12
2019-05-11T17:56:29.309Z,73.12
2019-05-11T17:57:29.290Z,78.75
2019-05-11T17:58:29.429Z,73.12
2019-05-11T17:59:29.268Z,67.50
2019-05-11T18:00:29.259Z,56.25
2019-05-11T18:01:29.260Z,50.62
2019-05-11T18:02:29.238Z,50.62
2019-05-11T18:03:29.226Z,45.00
2019-05-11T18:04:29.212Z,45.00
2019-05-11T18:05:29.202Z,39.38
2019-05-11T18:06:29.203Z,33.75
2019-05-11T18:07:30.924Z,33.75
2019-05-11T18:08:30.956Z,33.75
2019-05-11T18:09:29.155Z,28.12
2019-05-11T18:10:29.146Z,28.12
2019-05-11T18:11:29.896Z,28.12
2019-05-11T18:12:29.125Z,28.12
2019-05-11T18:13:29.113Z,28.12
2019-05-11T18:14:29.102Z,28.12
2019-05-11T18:15:29.099Z,28.12
2019-05-11T18:16:29.090Z,28.12
2019-05-11T18:17:29.065Z,28.12
2019-05-11T18:18:29.344Z,28.12
2019-05-11T18:19:29.042Z,28.12
2019-05-11T18:20:29.035Z,28.12
2019-05-11T18:21:29.034Z,28.12
2019-05-11T18:22:29.011Z,28.12
2019-05-11T18:23:28.999Z,28.12
2019-05-11T18:24:28.989Z,28.12
2019-05-11T18:25:28.993Z,28.12
2019-05-11T18:26:28.985Z,28.12
2019-05-11T18:27:28.956Z,28.12
2019-05-11T18:28:29.317Z,28.12
2019-05-11T18:29:29.039Z,28.12
2019-05-11T18:30:29.436Z,28.12
2019-05-11T18:31:28.924Z,28.12
2019-05-11T18:32:28.901Z,28.12
2019-05-11T18:33:28.894Z,28.12
2019-05-11T18:34:28.880Z,28.12
2019-05-11T18:35:28.875Z,28.12
2019-05-11T18:36:29.043Z,28.12
2019-05-11T18:37:28.859Z,22.50
2019-05-11T18:38:28.832Z,22.50
2019-05-11T18:39:28.820Z,22.50
2019-05-11T18:40:28.817Z,22.50
2019-05-11T18:41:28.800Z,16.88
2019-05-11T18:42:28.826Z,16.88
2019-05-11T18:43:28.781Z,16.88
2019-05-11T18:44:28.765Z,16.88
2019-05-11T18:45:28.925Z,16.88
2019-05-11T18:46:28.743Z,16.88
2019-05-11T18:47:29.947Z,11.25
2019-05-11T18:48:29.193Z,11.25
2019-05-11T18:49:28.711Z,11.25
2019-05-11T18:50:30.929Z,11.25
2019-05-11T18:51:28.688Z,11.25
2019-05-11T18:52:28.688Z,11.25
2019-05-11T18:53:29.099Z,5.62
2019-05-11T18:54:28.653Z,5.62
2019-05-11T18:55:28.642Z,5.62
2019-05-11T18:56:28.704Z,5.62
2019-05-11T18:57:28.630Z,5.62
2019-05-11T18:58:28.608Z,5.62
2019-05-11T18:59:28.600Z,5.62
2019-05-11T19:00:28.589Z,5.62
2019-05-11T19:01:28.687Z,5.62
2019-05-11T19:02:28.575Z,0.00
2019-05-11T19:03:28.554Z,0.00
2019-05-11T19:04:28.830Z,0.00
2019-05-11T19:05:29.222Z,0.00
2019-05-11T19:06:28.634Z,0.00
2019-05-11T19:07:28.519Z,0.00
2019-05-11T19:08:28.496Z,0.00
2019-05-11T19:09:28.522Z,0.00
2019-05-11T19:10:28.476Z,0.00
2019-05-11T19:11:29.049Z,0.00
2019-05-11T19:12:28.463Z,0.00
2019-05-11T19:13:28.485Z,0.00
2019-05-11T19:14:28.435Z,0.00
2019-05-11T19:15:28.443Z,0.00
2019-05-11T19:16:28.893Z,0.00
2019-05-11T19:17:29.105Z,0.00
2019-05-11T19:18:28.432Z,0.00
2019-05-11T19:19:28.378Z,0.00
2019-05-11T19:20:28.550Z,0.00
2019-05-11T19:21:28.354Z,0.00
2019-05-11T19:22:28.889Z,0.00
2019-05-11T19:23:28.864Z,0.00
2019-05-11T19:24:28.320Z,0.00
2019-05-11T19:25:28.314Z,0.00
2019-05-11T19:26:28.295Z,0.00
2019-05-11T19:27:28.809Z,0.00
2019-05-11T19:28:28.334Z,0.00
2019-05-11T19:29:28.380Z,0.00
2019-05-11T19:30:28.254Z,0.00
2019-05-11T19:31:28.256Z,0.00
2019-05-11T19:32:28.390Z,0.00
2019-05-11T19:33:28.217Z,0.00
2019-05-11T19:34:28.257Z,0.00
2019-05-11T19:35:28.791Z,0.00
2019-05-11T19:36:28.190Z,0.00
2019-05-11T19:37:28.175Z,0.00
2019-05-11T19:38:28.234Z,0.00
2019-05-11T19:39:28.159Z,0.00
2019-05-11T19:40:28.142Z,0.00
2019-05-11T19:41:28.129Z,0.00
2019-05-11T19:42:28.568Z,0.00
2019-05-11T19:43:28.114Z,0.00
2019-05-11T19:44:28.113Z,0.00
2019-05-11T19:45:29.340Z,0.00
2019-05-11T19:46:28.208Z,0.00
2019-05-11T19:47:28.292Z,0.00
2019-05-11T19:48:28.240Z,0.00
2019-05-11T19:49:28.066Z,0.00
2019-05-11T19:50:28.032Z,0.00
2019-05-11T19:51:29.061Z,0.00
2019-05-11T19:52:28.261Z,0.00
2019-05-11T19:53:28.201Z,0.00
2019-05-11T19:54:28.911Z,0.00
2019-05-11T19:55:28.672Z,0.00
2019-05-11T19:56:28.982Z,0.00
2019-05-11T19:57:28.346Z,0.00
2019-05-11T19:58:28.887Z,0.00
2019-05-11T19:59:28.070Z,0.00
2019-05-11T20:00:27.917Z,0.00
2019-05-11T20:01:28.023Z,0.00
2019-05-11T20:02:28.441Z,0.00
2019-05-11T20:03:28.518Z,0.00
2019-05-11T20:04:28.417Z,0.00
2019-05-11T20:05:28.833Z,0.00
2019-05-11T20:06:28.187Z,0.00
2019-05-11T20:07:27.839Z,0.00
2019-05-11T20:08:29.077Z,0.00
2019-05-11T20:09:28.339Z,0.00
2019-05-11T20:10:27.946Z,0.00
2019-05-11T20:11:28.061Z,0.00
2019-05-11T20:12:28.374Z,0.00
2019-05-11T20:13:28.362Z,0.00
2019-05-11T20:14:28.361Z,0.00
2019-05-11T20:15:27.751Z,0.00
2019-05-11T20:16:27.738Z,0.00
2019-05-11T20:17:28.848Z,0.00
2019-05-11T20:18:28.857Z,0.00
2019-05-11T20:19:28.250Z,0.00
2019-05-11T20:20:28.466Z,0.00
2019-05-11T20:21:29.045Z,0.00
2019-05-11T20:22:28.179Z,0.00
2019-05-11T20:23:27.666Z,0.00
2019-05-11T20:24:27.938Z,0.00
2019-05-11T20:25:28.769Z,0.00
2019-05-11T20:26:28.588Z,0.00
2019-05-11T20:27:28.214Z,0.00
2019-05-11T20:28:28.460Z,0.00
2019-05-11T20:29:27.812Z,0.00
2019-05-11T20:30:27.578Z,0.00
2019-05-11T20:31:27.812Z,0.00
2019-05-11T20:32:28.431Z,0.00
2019-05-11T20:33:27.934Z,0.00
2019-05-11T20:34:28.855Z,0.00
2019-05-11T20:35:28.064Z,0.00
2019-05-11T20:36:27.513Z,0.00
2019-05-11T20:37:28.759Z,0.00
2019-05-11T20:38:27.997Z,0.00
2019-05-11T20:39:28.661Z,0.00
2019-05-11T20:40:28.522Z,0.00
2019-05-11T20:41:28.005Z,0.00
2019-05-11T20:42:27.445Z,0.00
2019-05-11T20:43:27.874Z,0.00
2019-05-11T20:44:28.671Z,0.00
2019-05-11T20:45:28.516Z,0.00
2019-05-11T20:46:27.812Z,0.00
2019-05-11T20:47:28.737Z,0.00
2019-05-11T20:48:27.853Z,0.00
2019-05-11T20:49:28.198Z,0.00
2019-05-11T20:50:27.357Z,0.00
2019-05-11T20:51:34.137Z,0.00
2019-05-11T20:52:28.482Z,0.00
2019-05-11T20:53:28.640Z,0.00
2019-05-11T20:54:28.174Z,0.00
2019-05-11T20:55:28.363Z,0.00
2019-05-11T20:56:28.405Z,0.00
2019-05-11T20:57:28.461Z,0.00
2019-05-11T20:58:28.914Z,0.00
2019-05-11T20:59:28.941Z,0.00
2019-05-11T21:00:27.958Z,0.00
2019-05-11T21:01:28.559Z,0.00
2019-05-11T21:02:28.839Z,0.00
2019-05-11T21:03:27.807Z,0.00
2019-05-11T21:04:28.167Z,0.00
